sensor_id;sensor_type;location;lat;lon;timestamp;pressure;altitude;pressure_sealevel;temperature;humidity
11523;BME280;40093;43.224;27.910;2022-09-27T00:02:25;99470.91;;;21.00;84.69
11523;BME280;40093;43.224;27.910;2022-09-27T00:04:53;99460.69;;;20.97;84.58
11523;BME280;40093;43.224;27.910;2022-09-27T00:07:20;99463.19;;;20.86;84.54
11523;BME280;40093;43.224;27.910;2022-09-27T00:09:47;99461.78;;;20.82;84.91
11523;BME280;40093;43.224;27.910;2022-09-27T00:12:15;99472.81;;;20.76;85.64
11523;BME280;40093;43.224;27.910;2022-09-27T00:14:42;99470.09;;;20.40;87.52
11523;BME280;40093;43.224;27.910;2022-09-27T00:17:09;99471.00;;;20.37;88.14
11523;BME280;40093;43.224;27.910;2022-09-27T00:19:36;99469.72;;;20.03;90.54
11523;BME280;40093;43.224;27.910;2022-09-27T00:22:03;99458.44;;;20.06;90.94
11523;BME280;40093;43.224;27.910;2022-09-27T00:24:30;99441.38;;;20.04;90.65
11523;BME280;40093;43.224;27.910;2022-09-27T00:26:57;99466.34;;;20.17;90.52
11523;BME280;40093;43.224;27.910;2022-09-27T00:29:26;99465.72;;;20.22;90.60
11523;BME280;40093;43.224;27.910;2022-09-27T00:31:53;99471.31;;;20.13;91.07
11523;BME280;40093;43.224;27.910;2022-09-27T00:34:22;99475.03;;;20.10;91.13
11523;BME280;40093;43.224;27.910;2022-09-27T00:36:51;99479.69;;;20.13;90.91
11523;BME280;40093;43.224;27.910;2022-09-27T00:39:18;99475.59;;;19.96;91.79
11523;BME280;40093;43.224;27.910;2022-09-27T00:41:45;99461.97;;;19.98;91.65
11523;BME280;40093;43.224;27.910;2022-09-27T00:44:52;99468.66;;;20.09;91.28
11523;BME280;40093;43.224;27.910;2022-09-27T00:47:27;99475.94;;;20.07;91.49
11523;BME280;40093;43.224;27.910;2022-09-27T00:49:59;99465.72;;;20.04;91.44
11523;BME280;40093;43.224;27.910;2022-09-27T00:52:30;99452.19;;;20.02;91.12
11523;BME280;40093;43.224;27.910;2022-09-27T00:55:06;99459.69;;;20.14;91.38
11523;BME280;40093;43.224;27.910;2022-09-27T00:57:34;99457.50;;;20.09;91.46
11523;BME280;40093;43.224;27.910;2022-09-27T01:00:05;99466.50;;;20.13;91.68
11523;BME280;40093;43.224;27.910;2022-09-27T01:02:34;99462.94;;;20.13;91.70
11523;BME280;40093;43.224;27.910;2022-09-27T01:05:02;99452.38;;;20.17;91.92
11523;BME280;40093;43.224;27.910;2022-09-27T01:07:31;99453.00;;;20.21;91.74
11523;BME280;40093;43.224;27.910;2022-09-27T01:09:58;99451.16;;;20.18;92.10
11523;BME280;40093;43.224;27.910;2022-09-27T01:12:31;99446.16;;;20.13;92.16
11523;BME280;40093;43.224;27.910;2022-09-27T01:15:11;99443.06;;;20.20;92.22
11523;BME280;40093;43.224;27.910;2022-09-27T01:17:48;99459.34;;;20.21;92.09
11523;BME280;40093;43.224;27.910;2022-09-27T01:26:32;99433.44;;;20.30;91.88
11523;BME280;40093;43.224;27.910;2022-09-27T01:29:09;99429.72;;;20.33;91.54
11523;BME280;40093;43.224;27.910;2022-09-27T01:31:45;99421.94;;;20.36;90.77
11523;BME280;40093;43.224;27.910;2022-09-27T01:34:18;99425.03;;;20.38;90.88
11523;BME280;40093;43.224;27.910;2022-09-27T01:36:52;99430.16;;;20.40;90.97
11523;BME280;40093;43.224;27.910;2022-09-27T01:39:31;99422.56;;;20.32;91.16
11523;BME280;40093;43.224;27.910;2022-09-27T01:42:03;99420.72;;;20.11;92.46
11523;BME280;40093;43.224;27.910;2022-09-27T01:44:38;99425.34;;;19.87;94.47
11523;BME280;40093;43.224;27.910;2022-09-27T01:47:12;99423.16;;;19.91;94.78
11523;BME280;40093;43.224;27.910;2022-09-27T01:49:46;99417.59;;;19.91;95.21
11523;BME280;40093;43.224;27.910;2022-09-27T01:52:17;99425.03;;;19.94;95.48
11523;BME280;40093;43.224;27.910;2022-09-27T01:54:50;99420.06;;;19.89;95.10
11523;BME280;40093;43.224;27.910;2022-09-27T01:57:22;99418.53;;;19.97;94.83
11523;BME280;40093;43.224;27.910;2022-09-27T01:59:53;99421.34;;;20.06;94.96
11523;BME280;40093;43.224;27.910;2022-09-27T02:02:26;99406.31;;;20.12;94.79
11523;BME280;40093;43.224;27.910;2022-09-27T02:04:57;99404.56;;;20.15;94.72
11523;BME280;40093;43.224;27.910;2022-09-27T02:07:29;99385.97;;;20.21;94.56
11523;BME280;40093;43.224;27.910;2022-09-27T02:10:00;99388.59;;;20.15;94.03
11523;BME280;40093;43.224;27.910;2022-09-27T02:12:31;99376.94;;;20.17;94.14
11523;BME280;40093;43.224;27.910;2022-09-27T02:15:03;99389.66;;;20.27;93.80
11523;BME280;40093;43.224;27.910;2022-09-27T02:17:39;99394.00;;;20.36;92.90
11523;BME280;40093;43.224;27.910;2022-09-27T02:20:13;99412.47;;;20.43;92.03
11523;BME280;40093;43.224;27.910;2022-09-27T02:22:46;99392.16;;;20.33;91.90
11523;BME280;40093;43.224;27.910;2022-09-27T02:25:20;99418.09;;;20.34;91.79
11523;BME280;40093;43.224;27.910;2022-09-27T02:27:56;99412.50;;;20.25;91.92
11523;BME280;40093;43.224;27.910;2022-09-27T02:30:24;99414.34;;;20.28;92.40
11523;BME280;40093;43.224;27.910;2022-09-27T02:32:52;99423.81;;;20.31;91.84
11523;BME280;40093;43.224;27.910;2022-09-27T02:35:23;99425.69;;;20.33;92.30
11523;BME280;40093;43.224;27.910;2022-09-27T02:37:52;99404.56;;;20.33;92.53
11523;BME280;40093;43.224;27.910;2022-09-27T02:40:31;99394.63;;;20.32;91.53
11523;BME280;40093;43.224;27.910;2022-09-27T02:42:59;99415.09;;;20.46;90.89
11523;BME280;40093;43.224;27.910;2022-09-27T02:45:30;99416.22;;;20.22;91.86
11523;BME280;40093;43.224;27.910;2022-09-27T02:48:14;99411.72;;;20.33;91.55
11523;BME280;40093;43.224;27.910;2022-09-27T02:51:07;99414.50;;;20.25;91.57
11523;BME280;40093;43.224;27.910;2022-09-27T02:53:44;99417.00;;;20.40;90.79
11523;BME280;40093;43.224;27.910;2022-09-27T02:56:20;99412.94;;;20.41;90.64
11523;BME280;40093;43.224;27.910;2022-09-27T02:58:57;99400.06;;;20.44;90.11
11523;BME280;40093;43.224;27.910;2022-09-27T03:01:36;99398.66;;;20.39;90.46
11523;BME280;40093;43.224;27.910;2022-09-27T03:04:09;99400.81;;;20.44;90.54
11523;BME280;40093;43.224;27.910;2022-09-27T03:06:45;99415.72;;;20.50;91.05
11523;BME280;40093;43.224;27.910;2022-09-27T03:09:17;99413.84;;;20.56;90.80
11523;BME280;40093;43.224;27.910;2022-09-27T03:11:44;99400.22;;;20.40;90.83
11523;BME280;40093;43.224;27.910;2022-09-27T03:14:11;99403.78;;;20.41;90.85
11523;BME280;40093;43.224;27.910;2022-09-27T03:16:38;99413.53;;;20.63;90.39
11523;BME280;40093;43.224;27.910;2022-09-27T03:19:07;99416.91;;;20.76;89.52
11523;BME280;40093;43.224;27.910;2022-09-27T03:21:34;99353.19;;;20.39;88.52
11523;BME280;40093;43.224;27.910;2022-09-27T03:24:02;99406.31;;;20.89;88.36
11523;BME280;40093;43.224;27.910;2022-09-27T03:26:29;99399.31;;;20.94;87.70
11523;BME280;40093;43.224;27.910;2022-09-27T03:28:56;99399.44;;;20.99;87.28
11523;BME280;40093;43.224;27.910;2022-09-27T03:31:23;99377.25;;;20.96;87.05
11523;BME280;40093;43.224;27.910;2022-09-27T03:33:50;99374.09;;;21.03;87.30
11523;BME280;40093;43.224;27.910;2022-09-27T03:36:18;99371.25;;;20.70;89.63
11523;BME280;40093;43.224;27.910;2022-09-27T03:38:45;99366.56;;;20.76;89.98
11523;BME280;40093;43.224;27.910;2022-09-27T03:41:12;99357.56;;;20.81;89.60
11523;BME280;40093;43.224;27.910;2022-09-27T03:43:39;99343.25;;;20.79;89.13
11523;BME280;40093;43.224;27.910;2022-09-27T03:46:06;99357.06;;;20.92;88.44
11523;BME280;40093;43.224;27.910;2022-09-27T03:48:33;99357.84;;;20.92;88.63
11523;BME280;40093;43.224;27.910;2022-09-27T03:51:00;99352.25;;;20.92;89.25
11523;BME280;40093;43.224;27.910;2022-09-27T03:53:30;99346.06;;;20.88;89.59
11523;BME280;40093;43.224;27.910;2022-09-27T03:55:57;99331.78;;;20.77;89.96
11523;BME280;40093;43.224;27.910;2022-09-27T03:58:24;99345.59;;;20.81;90.02
11523;BME280;40093;43.224;27.910;2022-09-27T04:00:51;99348.69;;;20.83;90.75
11523;BME280;40093;43.224;27.910;2022-09-27T04:03:18;99349.47;;;20.83;91.21
11523;BME280;40093;43.224;27.910;2022-09-27T04:05:45;99351.97;;;20.81;91.54
11523;BME280;40093;43.224;27.910;2022-09-27T04:08:12;99354.75;;;20.81;90.62
11523;BME280;40093;43.224;27.910;2022-09-27T04:10:41;99347.31;;;20.78;90.84
11523;BME280;40093;43.224;27.910;2022-09-27T04:13:08;99344.34;;;20.82;91.08
11523;BME280;40093;43.224;27.910;2022-09-27T04:15:35;99350.22;;;20.84;90.39
11523;BME280;40093;43.224;27.910;2022-09-27T04:18:04;99352.72;;;20.82;90.20
11523;BME280;40093;43.224;27.910;2022-09-27T04:20:32;99360.81;;;20.80;91.05
11523;BME280;40093;43.224;27.910;2022-09-27T04:22:59;99346.38;;;20.81;91.64
11523;BME280;40093;43.224;27.910;2022-09-27T04:25:26;99330.88;;;20.71;91.75
11523;BME280;40093;43.224;27.910;2022-09-27T04:27:59;99337.84;;;20.76;92.76
11523;BME280;40093;43.224;27.910;2022-09-27T04:30:27;99342.16;;;20.86;93.37
11523;BME280;40093;43.224;27.910;2022-09-27T04:32:54;99356.16;;;20.86;92.33
11523;BME280;40093;43.224;27.910;2022-09-27T04:35:21;99351.19;;;20.90;91.73
11523;BME280;40093;43.224;27.910;2022-09-27T04:38:06;99359.63;;;20.63;92.69
11523;BME280;40093;43.224;27.910;2022-09-27T04:40:34;99358.84;;;20.71;92.64
11523;BME280;40093;43.224;27.910;2022-09-27T04:43:02;99358.94;;;20.86;92.62
11523;BME280;40093;43.224;27.910;2022-09-27T04:45:29;99353.25;;;20.71;91.33
11523;BME280;40093;43.224;27.910;2022-09-27T04:47:56;99367.53;;;20.73;91.82
11523;BME280;40093;43.224;27.910;2022-09-27T04:50:23;99360.97;;;20.85;92.05
11523;BME280;40093;43.224;27.910;2022-09-27T04:52:51;99364.03;;;20.96;92.09
11523;BME280;40093;43.224;27.910;2022-09-27T04:55:19;99360.72;;;21.07;90.92
11523;BME280;40093;43.224;27.910;2022-09-27T04:57:47;99359.91;;;21.15;90.23
11523;BME280;40093;43.224;27.910;2022-09-27T05:00:16;99357.25;;;21.21;88.53
11523;BME280;40093;43.224;27.910;2022-09-27T05:02:43;99361.72;;;21.27;88.50
11523;BME280;40093;43.224;27.910;2022-09-27T05:05:13;99366.94;;;21.34;88.80
11523;BME280;40093;43.224;27.910;2022-09-27T05:07:40;99360.69;;;21.39;89.38
11523;BME280;40093;43.224;27.910;2022-09-27T05:10:08;99364.09;;;21.43;89.42
11523;BME280;40093;43.224;27.910;2022-09-27T05:12:35;99367.50;;;21.47;89.39
11523;BME280;40093;43.224;27.910;2022-09-27T05:15:03;99366.66;;;21.56;89.48
11523;BME280;40093;43.224;27.910;2022-09-27T05:17:31;99366.63;;;21.65;88.69
11523;BME280;40093;43.224;27.910;2022-09-27T05:19:58;99363.28;;;21.75;88.04
11523;BME280;40093;43.224;27.910;2022-09-27T05:22:25;99342.41;;;21.76;88.53
11523;BME280;40093;43.224;27.910;2022-09-27T05:24:52;99353.84;;;21.87;89.84
11523;BME280;40093;43.224;27.910;2022-09-27T05:27:19;99361.59;;;21.92;89.54
11523;BME280;40093;43.224;27.910;2022-09-27T05:29:46;99372.44;;;21.99;87.14
11523;BME280;40093;43.224;27.910;2022-09-27T05:32:14;99369.75;;;22.05;82.99
11523;BME280;40093;43.224;27.910;2022-09-27T05:34:42;99366.66;;;22.17;84.37
11523;BME280;40093;43.224;27.910;2022-09-27T05:37:09;99376.25;;;22.25;82.68
11523;BME280;40093;43.224;27.910;2022-09-27T05:39:36;99370.06;;;22.36;81.18
11523;BME280;40093;43.224;27.910;2022-09-27T05:42:03;99360.72;;;22.53;82.59
11523;BME280;40093;43.224;27.910;2022-09-27T05:44:31;99372.69;;;22.83;80.19
11523;BME280;40093;43.224;27.910;2022-09-27T05:47:00;99362.09;;;23.06;78.65
11523;BME280;40093;43.224;27.910;2022-09-27T05:49:28;99351.41;;;23.25;75.35
11523;BME280;40093;43.224;27.910;2022-09-27T05:51:57;99338.41;;;23.42;73.62
11523;BME280;40093;43.224;27.910;2022-09-27T05:54:24;99329.25;;;23.47;72.53
11523;BME280;40093;43.224;27.910;2022-09-27T05:56:53;99317.34;;;23.32;72.91
11523;BME280;40093;43.224;27.910;2022-09-27T05:59:23;99340.66;;;23.38;73.44
11523;BME280;40093;43.224;27.910;2022-09-27T06:01:51;99340.84;;;23.34;72.48
11523;BME280;40093;43.224;27.910;2022-09-27T06:04:18;99348.66;;;23.45;74.30
11523;BME280;40093;43.224;27.910;2022-09-27T06:06:46;99354.38;;;23.90;72.00
11523;BME280;40093;43.224;27.910;2022-09-27T06:09:15;99352.28;;;24.11;67.37
11523;BME280;40093;43.224;27.910;2022-09-27T06:11:42;99346.81;;;24.53;66.68
11523;BME280;40093;43.224;27.910;2022-09-27T06:14:10;99348.94;;;25.20;63.86
11523;BME280;40093;43.224;27.910;2022-09-27T06:16:37;99344.91;;;25.74;61.45
11523;BME280;40093;43.224;27.910;2022-09-27T06:19:04;99346.56;;;26.07;59.18
11523;BME280;40093;43.224;27.910;2022-09-27T06:21:31;99344.53;;;26.13;56.85
11523;BME280;40093;43.224;27.910;2022-09-27T06:23:58;99340.03;;;25.79;57.68
11523;BME280;40093;43.224;27.910;2022-09-27T06:26:26;99337.84;;;25.47;57.49
11523;BME280;40093;43.224;27.910;2022-09-27T06:28:53;99353.31;;;24.90;59.66
11523;BME280;40093;43.224;27.910;2022-09-27T06:31:21;99351.13;;;25.05;60.47
11523;BME280;40093;43.224;27.910;2022-09-27T06:33:48;99352.03;;;25.22;60.22
11523;BME280;40093;43.224;27.910;2022-09-27T06:36:15;99352.13;;;25.38;59.48
11523;BME280;40093;43.224;27.910;2022-09-27T06:38:42;99339.03;;;25.30;58.59
11523;BME280;40093;43.224;27.910;2022-09-27T06:41:11;99351.38;;;25.07;59.46
11523;BME280;40093;43.224;27.910;2022-09-27T06:43:41;99350.41;;;24.79;60.63
11523;BME280;40093;43.224;27.910;2022-09-27T06:46:08;99334.91;;;24.89;60.14
11523;BME280;40093;43.224;27.910;2022-09-27T06:48:35;99325.06;;;25.10;59.58
11523;BME280;40093;43.224;27.910;2022-09-27T06:51:04;99320.19;;;25.10;59.34
11523;BME280;40093;43.224;27.910;2022-09-27T06:53:31;99325.72;;;25.30;58.96
11523;BME280;40093;43.224;27.910;2022-09-27T06:55:58;99327.84;;;25.41;58.86
11523;BME280;40093;43.224;27.910;2022-09-27T06:58:26;99337.50;;;25.29;58.79
11523;BME280;40093;43.224;27.910;2022-09-27T07:01:12;99337.00;;;25.36;59.08
11523;BME280;40093;43.224;27.910;2022-09-27T07:03:39;99328.03;;;25.32;58.87
11523;BME280;40093;43.224;27.910;2022-09-27T07:06:14;99323.78;;;25.11;59.39
11523;BME280;40093;43.224;27.910;2022-09-27T07:08:42;99319.19;;;25.13;59.65
11523;BME280;40093;43.224;27.910;2022-09-27T07:11:09;99336.78;;;25.03;60.16
11523;BME280;40093;43.224;27.910;2022-09-27T07:13:36;99319.84;;;24.97;60.47
11523;BME280;40093;43.224;27.910;2022-09-27T07:16:07;99318.28;;;24.91;61.07
11523;BME280;40093;43.224;27.910;2022-09-27T07:18:37;99324.81;;;25.08;60.54
11523;BME280;40093;43.224;27.910;2022-09-27T07:21:04;99301.03;;;25.14;60.38
11523;BME280;40093;43.224;27.910;2022-09-27T07:23:33;99309.50;;;25.62;59.07
11523;BME280;40093;43.224;27.910;2022-09-27T07:26:01;99327.53;;;25.91;58.29
11523;BME280;40093;43.224;27.910;2022-09-27T07:28:31;99324.06;;;26.29;56.49
11523;BME280;40093;43.224;27.910;2022-09-27T07:30:58;99330.50;;;26.35;55.34
11523;BME280;40093;43.224;27.910;2022-09-27T07:33:26;99328.66;;;26.21;54.43
11523;BME280;40093;43.224;27.910;2022-09-27T07:35:55;99320.47;;;26.34;54.04
11523;BME280;40093;43.224;27.910;2022-09-27T07:38:22;99312.06;;;26.56;53.65
11523;BME280;40093;43.224;27.910;2022-09-27T07:40:49;99320.00;;;26.63;53.18
11523;BME280;40093;43.224;27.910;2022-09-27T07:43:15;99305.63;;;26.72;53.01
11523;BME280;40093;43.224;27.910;2022-09-27T07:45:44;99319.25;;;26.74;52.54
11523;BME280;40093;43.224;27.910;2022-09-27T07:48:13;99333.34;;;26.68;53.43
11523;BME280;40093;43.224;27.910;2022-09-27T07:50:41;99317.44;;;26.71;53.20
11523;BME280;40093;43.224;27.910;2022-09-27T07:53:09;99324.09;;;26.62;53.79
11523;BME280;40093;43.224;27.910;2022-09-27T07:55:38;99319.75;;;26.78;53.22
11523;BME280;40093;43.224;27.910;2022-09-27T07:58:07;99305.63;;;26.78;53.32
11523;BME280;40093;43.224;27.910;2022-09-27T08:00:35;99308.22;;;26.70;53.01
11523;BME280;40093;43.224;27.910;2022-09-27T08:03:06;99308.97;;;26.54;54.10
11523;BME280;40093;43.224;27.910;2022-09-27T08:05:34;99297.69;;;26.65;53.87
11523;BME280;40093;43.224;27.910;2022-09-27T08:08:02;99300.00;;;26.50;54.67
11523;BME280;40093;43.224;27.910;2022-09-27T08:10:31;99304.84;;;26.66;53.92
11523;BME280;40093;43.224;27.910;2022-09-27T08:12:59;99307.19;;;26.73;54.08
11523;BME280;40093;43.224;27.910;2022-09-27T08:15:28;99310.25;;;26.64;55.02
11523;BME280;40093;43.224;27.910;2022-09-27T08:17:55;99297.69;;;26.65;55.10
11523;BME280;40093;43.224;27.910;2022-09-27T08:20:22;99285.63;;;26.59;54.97
11523;BME280;40093;43.224;27.910;2022-09-27T08:22:48;99274.06;;;26.46;55.61
11523;BME280;40093;43.224;27.910;2022-09-27T08:25:16;99265.34;;;26.50;55.54
11523;BME280;40093;43.224;27.910;2022-09-27T08:27:54;99248.16;;;26.48;55.25
11523;BME280;40093;43.224;27.910;2022-09-27T08:30:21;99265.88;;;26.70;55.03
11523;BME280;40093;43.224;27.910;2022-09-27T08:32:48;99262.53;;;26.83;54.86
11523;BME280;40093;43.224;27.910;2022-09-27T08:35:15;99257.41;;;26.81;54.46
11523;BME280;40093;43.224;27.910;2022-09-27T08:37:42;99262.00;;;26.79;54.46
11523;BME280;40093;43.224;27.910;2022-09-27T08:40:12;99245.34;;;26.64;54.55
11523;BME280;40093;43.224;27.910;2022-09-27T08:42:48;99254.31;;;26.35;54.74
11523;BME280;40093;43.224;27.910;2022-09-27T08:45:23;99269.97;;;26.36;55.27
11523;BME280;40093;43.224;27.910;2022-09-27T08:47:57;99273.78;;;26.44;55.89
11523;BME280;40093;43.224;27.910;2022-09-27T08:50:28;99263.53;;;26.41;55.38
11523;BME280;40093;43.224;27.910;2022-09-27T08:52:59;99266.09;;;26.17;55.79
11523;BME280;40093;43.224;27.910;2022-09-27T08:55:32;99266.63;;;26.43;55.84
11523;BME280;40093;43.224;27.910;2022-09-27T08:58:08;99234.06;;;26.31;55.76
11523;BME280;40093;43.224;27.910;2022-09-27T09:00:38;99264.09;;;26.56;55.39
11523;BME280;40093;43.224;27.910;2022-09-27T09:03:09;99260.97;;;26.32;55.97
11523;BME280;40093;43.224;27.910;2022-09-27T09:05:49;99240.47;;;26.37;55.66
11523;BME280;40093;43.224;27.910;2022-09-27T09:08:28;99253.06;;;26.58;55.88
11523;BME280;40093;43.224;27.910;2022-09-27T09:11:05;99240.25;;;26.57;56.66
11523;BME280;40093;43.224;27.910;2022-09-27T09:16:47;99238.66;;;26.29;58.99
11523;BME280;40093;43.224;27.910;2022-09-27T09:19:37;99235.34;;;26.30;59.30
11523;BME280;40093;43.224;27.910;2022-09-27T09:22:25;99241.22;;;26.16;59.75
11523;BME280;40093;43.224;27.910;2022-09-27T09:25:05;99252.00;;;26.17;59.95
11523;BME280;40093;43.224;27.910;2022-09-27T09:27:39;99248.63;;;26.08;60.74
11523;BME280;40093;43.224;27.910;2022-09-27T09:30:22;99252.75;;;26.12;60.83
11523;BME280;40093;43.224;27.910;2022-09-27T09:33:14;99253.53;;;26.24;60.69
11523;BME280;40093;43.224;27.910;2022-09-27T09:35:47;99256.34;;;26.18;60.83
11523;BME280;40093;43.224;27.910;2022-09-27T09:38:20;99259.16;;;26.02;61.91
11523;BME280;40093;43.224;27.910;2022-09-27T09:40:52;99262.97;;;25.88;62.26
11523;BME280;40093;43.224;27.910;2022-09-27T09:43:28;99251.91;;;25.84;62.96
11523;BME280;40093;43.224;27.910;2022-09-27T09:46:02;99254.81;;;26.06;62.69
11523;BME280;40093;43.224;27.910;2022-09-27T09:48:39;99264.31;;;26.20;62.84
11523;BME280;40093;43.224;27.910;2022-09-27T09:51:12;99261.22;;;26.12;62.88
11523;BME280;40093;43.224;27.910;2022-09-27T09:53:46;99254.56;;;26.10;63.06
11523;BME280;40093;43.224;27.910;2022-09-27T09:56:19;99253.28;;;26.22;62.66
11523;BME280;40093;43.224;27.910;2022-09-27T09:58:52;99257.41;;;26.26;62.78
11523;BME280;40093;43.224;27.910;2022-09-27T10:01:25;99237.13;;;26.33;61.52
11523;BME280;40093;43.224;27.910;2022-09-27T10:03:53;99246.63;;;26.52;61.65
11523;BME280;40093;43.224;27.910;2022-09-27T10:06:20;99216.88;;;26.62;60.46
11523;BME280;40093;43.224;27.910;2022-09-27T10:08:48;99227.13;;;26.49;60.58
11523;BME280;40093;43.224;27.910;2022-09-27T10:11:21;99214.31;;;26.31;61.12
11523;BME280;40093;43.224;27.910;2022-09-27T10:13:49;99215.59;;;26.08;62.71
11523;BME280;40093;43.224;27.910;2022-09-27T10:16:19;99209.19;;;26.24;61.76
11523;BME280;40093;43.224;27.910;2022-09-27T10:18:48;99203.00;;;26.42;61.37
11523;BME280;40093;43.224;27.910;2022-09-27T10:21:19;99205.84;;;26.64;60.23
11523;BME280;40093;43.224;27.910;2022-09-27T10:24:05;99205.09;;;26.58;60.74
11523;BME280;40093;43.224;27.910;2022-09-27T10:26:33;99198.91;;;26.49;61.19
11523;BME280;40093;43.224;27.910;2022-09-27T10:29:19;99191.75;;;26.53;60.92
11523;BME280;40093;43.224;27.910;2022-09-27T10:31:48;99195.78;;;26.85;59.99
11523;BME280;40093;43.224;27.910;2022-09-27T10:34:27;99179.09;;;26.87;59.61
11523;BME280;40093;43.224;27.910;2022-09-27T10:37:23;99184.44;;;27.02;59.13
11523;BME280;40093;43.224;27.910;2022-09-27T10:39:50;99185.72;;;27.12;59.96
11523;BME280;40093;43.224;27.910;2022-09-27T10:42:29;99183.03;;;27.36;59.28
11523;BME280;40093;43.224;27.910;2022-09-27T10:44:58;99176.31;;;27.44;59.11
11523;BME280;40093;43.224;27.910;2022-09-27T10:47:45;99169.66;;;27.42;58.94
11523;BME280;40093;43.224;27.910;2022-09-27T10:50:17;99157.03;;;27.48;59.11
11523;BME280;40093;43.224;27.910;2022-09-27T10:52:46;99156.16;;;27.64;59.15
11523;BME280;40093;43.224;27.910;2022-09-27T10:55:21;99159.66;;;27.81;58.39
11523;BME280;40093;43.224;27.910;2022-09-27T10:57:50;99145.72;;;27.89;57.38
11523;BME280;40093;43.224;27.910;2022-09-27T11:00:21;99142.75;;;27.70;58.42
11523;BME280;40093;43.224;27.910;2022-09-27T11:02:52;99139.41;;;27.77;58.12
11523;BME280;40093;43.224;27.910;2022-09-27T11:05:32;99143.44;;;27.87;57.92
11523;BME280;40093;43.224;27.910;2022-09-27T11:08:01;99140.25;;;28.02;56.86
11523;BME280;40093;43.224;27.910;2022-09-27T11:10:30;99143.25;;;28.09;56.91
11523;BME280;40093;43.224;27.910;2022-09-27T11:13:10;99134.50;;;27.78;57.25
11523;BME280;40093;43.224;27.910;2022-09-27T11:15:59;99132.31;;;27.95;56.81
11523;BME280;40093;43.224;27.910;2022-09-27T11:18:38;99135.75;;;27.82;56.70
11523;BME280;40093;43.224;27.910;2022-09-27T11:21:20;99138.94;;;27.62;58.13
11523;BME280;40093;43.224;27.910;2022-09-27T11:24:05;99140.59;;;27.52;58.79
11523;BME280;40093;43.224;27.910;2022-09-27T11:26:43;99136.00;;;27.44;58.67
11523;BME280;40093;43.224;27.910;2022-09-27T11:29:22;99137.84;;;27.30;58.60
11523;BME280;40093;43.224;27.910;2022-09-27T11:32:03;99140.19;;;27.26;59.21
11523;BME280;40093;43.224;27.910;2022-09-27T11:34:56;99129.91;;;27.34;59.36
11523;BME280;40093;43.224;27.910;2022-09-27T11:37:37;99115.16;;;27.52;58.07
11523;BME280;40093;43.224;27.910;2022-09-27T11:40:17;99124.31;;;27.64;58.35
11523;BME280;40093;43.224;27.910;2022-09-27T11:43:02;99116.34;;;27.62;57.74
11523;BME280;40093;43.224;27.910;2022-09-27T11:45:45;99109.66;;;27.65;58.20
11523;BME280;40093;43.224;27.910;2022-09-27T11:48:32;99112.03;;;27.56;58.94
11523;BME280;40093;43.224;27.910;2022-09-27T11:51:11;99110.94;;;27.64;58.73
11523;BME280;40093;43.224;27.910;2022-09-27T11:54:09;99102.41;;;27.75;59.29
11523;BME280;40093;43.224;27.910;2022-09-27T11:56:44;99104.50;;;27.99;59.08
11523;BME280;40093;43.224;27.910;2022-09-27T11:59:30;99088.69;;;28.14;60.18
11523;BME280;40093;43.224;27.910;2022-09-27T12:02:11;99081.50;;;28.13;57.49
11523;BME280;40093;43.224;27.910;2022-09-27T12:04:59;99089.44;;;28.44;56.72
11523;BME280;40093;43.224;27.910;2022-09-27T12:07:36;99088.25;;;28.58;55.21
11523;BME280;40093;43.224;27.910;2022-09-27T12:10:12;99087.66;;;28.65;54.15
11523;BME280;40093;43.224;27.910;2022-09-27T12:12:43;99069.72;;;28.57;55.35
11523;BME280;40093;43.224;27.910;2022-09-27T12:15:15;99070.22;;;28.37;55.71
11523;BME280;40093;43.224;27.910;2022-09-27T12:17:45;99065.94;;;28.25;55.10
11523;BME280;40093;43.224;27.910;2022-09-27T12:20:19;99066.06;;;28.14;56.25
11523;BME280;40093;43.224;27.910;2022-09-27T12:22:53;99059.25;;;27.99;57.60
11523;BME280;40093;43.224;27.910;2022-09-27T12:25:25;99070.03;;;27.76;58.43
11523;BME280;40093;43.224;27.910;2022-09-27T12:28:01;99077.16;;;27.48;59.06
11523;BME280;40093;43.224;27.910;2022-09-27T12:30:30;99078.06;;;27.26;60.82
11523;BME280;40093;43.224;27.910;2022-09-27T12:33:03;99088.38;;;27.18;60.22
11523;BME280;40093;43.224;27.910;2022-09-27T12:35:38;99076.84;;;27.16;60.59
11523;BME280;40093;43.224;27.910;2022-09-27T12:38:12;99080.75;;;27.02;61.38
11523;BME280;40093;43.224;27.910;2022-09-27T12:40:44;99075.38;;;26.99;61.67
11523;BME280;40093;43.224;27.910;2022-09-27T12:43:17;99072.75;;;27.12;61.23
11523;BME280;40093;43.224;27.910;2022-09-27T12:45:50;99078.06;;;27.26;61.36
11523;BME280;40093;43.224;27.910;2022-09-27T12:48:26;99087.31;;;27.27;61.38
11523;BME280;40093;43.224;27.910;2022-09-27T12:51:02;99067.25;;;27.30;61.26
11523;BME280;40093;43.224;27.910;2022-09-27T12:53:43;99068.56;;;27.24;61.68
11523;BME280;40093;43.224;27.910;2022-09-27T12:56:26;99068.63;;;27.13;62.61
11523;BME280;40093;43.224;27.910;2022-09-27T12:59:11;99068.41;;;27.05;62.74
11523;BME280;40093;43.224;27.910;2022-09-27T13:01:57;99077.16;;;26.96;63.42
11523;BME280;40093;43.224;27.910;2022-09-27T13:04:39;99061.97;;;27.10;62.63
11523;BME280;40093;43.224;27.910;2022-09-27T13:07:22;99075.06;;;27.13;62.06
11523;BME280;40093;43.224;27.910;2022-09-27T13:10:13;99081.78;;;26.99;62.51
11523;BME280;40093;43.224;27.910;2022-09-27T13:12:48;99072.41;;;27.26;62.35
11523;BME280;40093;43.224;27.910;2022-09-27T13:15:21;99070.81;;;27.36;61.18
11523;BME280;40093;43.224;27.910;2022-09-27T13:17:54;99072.09;;;27.35;61.42
11523;BME280;40093;43.224;27.910;2022-09-27T13:20:44;99077.75;;;27.35;61.32
11523;BME280;40093;43.224;27.910;2022-09-27T13:26:45;99070.78;;;26.96;63.00
11523;BME280;40093;43.224;27.910;2022-09-27T13:29:31;99067.53;;;26.75;64.15